Time;durP1;ratioP1;P1;durP2;ratioP2;P2;SDS_P1;SDS_P2;PMS_P1;PMS_P2;Temp;Humidity;BMP_temperature;BMP_pressure;BME280_temperature;BME280_humidity;BME280_pressure;Samples;Min_cycle;Max_cycle;Signal;HPM_P1;HPM_P2
2022/01/05 00:01:24;;;;;;;0.00;0.00;;;1.80;99.90;;;;;;4940862;28;20050;-67
2022/01/05 00:03:50;;;;;;;0.00;0.00;;;1.70;99.90;;;;;;4938645;29;20104;-67
2022/01/05 00:06:16;;;;;;;0.00;0.00;;;1.70;99.90;;;;;;4939737;29;20063;-67
2022/01/05 00:08:41;;;;;;;0.00;0.00;;;1.60;99.90;;;;;;4940850;28;20105;-67
2022/01/05 00:11:07;;;;;;;0.00;0.00;;;1.80;99.90;;;;;;4940889;28;20050;-67
2022/01/05 00:13:33;;;;;;;0.00;0.00;;;1.60;99.90;;;;;;4939772;28;20043;-67
2022/01/05 00:15:59;;;;;;;0.00;0.00;;;1.60;99.90;;;;;;4939668;28;20108;-67
2022/01/05 00:18:25;;;;;;;0.00;0.00;;;1.60;99.90;;;;;;4940914;28;20061;-68
2022/01/05 00:20:50;;;;;;;0.00;0.00;;;1.60;99.90;;;;;;4940986;28;20039;-67
2022/01/05 00:23:16;;;;;;;0.00;0.00;;;1.60;99.90;;;;;;4922960;29;20055;-67
2022/01/05 00:25:42;;;;;;;0.00;0.00;;;1.60;99.90;;;;;;4940370;28;20505;-67
2022/01/05 00:28:07;;;;;;;0.00;0.00;;;2.30;99.90;;;;;;4942210;28;20576;-67
2022/01/05 00:30:33;;;;;;;0.00;0.00;;;1.50;99.90;;;;;;4949051;28;20494;-67
2022/01/05 00:32:59;;;;;;;0.00;0.00;;;1.60;99.90;;;;;;4940159;28;20055;-67
2022/01/05 00:35:24;;;;;;;0.00;0.00;;;1.50;99.90;;;;;;4940667;28;20493;-66
2022/01/05 00:37:50;;;;;;;0.00;0.00;;;1.50;99.90;;;;;;4939148;29;20070;-66
2022/01/05 00:40:16;;;;;;;0.00;0.00;;;1.50;99.90;;;;;;4939154;29;20066;-66
2022/01/05 00:42:41;;;;;;;0.00;0.00;;;1.50;99.90;;;;;;4938918;28;20054;-66
2022/01/05 00:45:08;;;;;;;0.00;0.00;;;1.50;99.90;;;;;;4940537;28;20047;-66
2022/01/05 00:47:33;;;;;;;0.00;0.00;;;2.00;99.90;;;;;;4940398;28;20082;-66
2022/01/05 00:49:59;;;;;;;0.00;0.00;;;1.40;99.90;;;;;;4940824;28;20097;-66
2022/01/05 00:52:25;;;;;;;0.00;0.00;;;0.70;99.90;;;;;;4938526;29;20051;-66
2022/01/05 00:54:51;;;;;;;0.00;0.00;;;2.80;99.90;;;;;;4939024;28;20090;-65
2022/01/05 00:57:17;;;;;;;0.00;0.00;;;1.40;99.90;;;;;;4938448;28;20130;-65
2022/01/05 00:59:43;;;;;;;0.00;0.00;;;1.40;99.90;;;;;;4939825;28;20051;-65
2022/01/05 01:02:08;;;;;;;0.00;0.00;;;1.40;99.90;;;;;;4938913;28;20103;-65
2022/01/05 01:04:34;;;;;;;0.00;0.00;;;2.80;99.90;;;;;;4940198;28;20521;-65
2022/01/05 01:07:00;;;;;;;0.00;0.00;;;1.40;99.90;;;;;;4940412;28;20161;-65
2022/01/05 01:09:25;;;;;;;0.00;0.00;;;1.40;99.90;;;;;;4937984;28;20051;-67
2022/01/05 01:11:51;;;;;;;0.00;0.00;;;1.40;99.90;;;;;;4938536;28;20055;-67
2022/01/05 01:14:17;;;;;;;0.00;0.00;;;1.40;99.90;;;;;;4922046;29;20144;-67
2022/01/05 01:16:43;;;;;;;0.00;0.00;;;1.40;99.90;;;;;;4954445;28;20059;-68
2022/01/05 01:19:09;;;;;;;0.00;0.00;;;1.40;99.90;;;;;;4939579;28;20055;-68
2022/01/05 01:21:35;;;;;;;0.00;0.00;;;1.40;99.90;;;;;;4938894;29;20059;-67
2022/01/05 01:24:00;;;;;;;0.00;0.00;;;1.50;99.90;;;;;;4939036;28;20426;-68
2022/01/05 01:26:29;;;;;;;0.00;0.00;;;1.50;99.90;;;;;;4940131;28;20040;-68
2022/01/05 01:28:56;;;;;;;0.00;0.00;;;1.60;99.90;;;;;;4945408;28;20073;-68
2022/01/05 01:31:22;;;;;;;0.00;0.00;;;1.60;99.90;;;;;;4941635;28;20082;-68
2022/01/05 01:33:47;;;;;;;0.00;0.00;;;1.70;99.90;;;;;;4922651;29;20047;-68
2022/01/05 01:36:13;;;;;;;0.00;0.00;;;2.90;99.90;;;;;;4939783;28;20043;-68
2022/01/05 01:38:39;;;;;;;0.00;0.00;;;1.80;99.90;;;;;;4938012;29;20059;-66
2022/01/05 01:41:05;;;;;;;0.00;0.00;;;1.80;99.90;;;;;;4938485;29;20055;-66
2022/01/05 01:43:31;;;;;;;0.00;0.00;;;2.30;99.90;;;;;;4922047;29;20043;-66
2022/01/05 01:45:57;;;;;;;0.00;0.00;;;1.90;99.90;;;;;;4939475;28;20051;-66
2022/01/05 01:48:23;;;;;;;0.00;0.00;;;1.90;99.90;;;;;;4937669;29;20047;-66
2022/01/05 01:50:49;;;;;;;0.00;0.00;;;1.90;99.90;;;;;;4938299;28;20091;-66
2022/01/05 01:53:14;;;;;;;0.00;0.00;;;2.90;99.90;;;;;;4939483;28;20073;-66
2022/01/05 01:55:40;;;;;;;0.00;0.00;;;2.00;99.90;;;;;;4937960;28;20140;-66
2022/01/05 01:58:07;;;;;;;0.00;0.00;;;2.10;99.90;;;;;;4937032;29;20078;-66
2022/01/05 02:00:33;;;;;;;0.00;0.00;;;2.20;99.90;;;;;;4939474;28;20051;-66
2022/01/05 02:02:59;;;;;;;0.00;0.00;;;2.20;99.90;;;;;;4938597;29;20040;-65
2022/01/05 02:05:25;;;;;;;0.00;0.00;;;2.10;99.90;;;;;;4937328;28;20105;-66
2022/01/05 02:07:51;;;;;;;0.00;0.00;;;2.10;99.90;;;;;;4941014;28;20047;-66
2022/01/05 02:10:17;;;;;;;0.00;0.00;;;2.10;99.90;;;;;;4966262;22;20551;-65
2022/01/05 02:12:44;;;;;;;0.00;0.00;;;2.10;99.90;;;;;;4969016;28;20138;-65
2022/01/05 02:15:11;;;;;;;0.00;0.00;;;2.00;99.90;;;;;;4980340;28;20137;-66
2022/01/05 02:17:51;;;;;;;0.00;0.00;;;2.00;99.90;;;;;;4981501;28;20047;-66
2022/01/05 02:20:19;;;;;;;0.00;0.00;;;2.00;99.90;;;;;;4981473;28;20042;-66
2022/01/05 02:22:46;;;;;;;0.00;0.00;;;1.90;99.90;;;;;;4979514;28;20054;-66
2022/01/05 02:25:12;;;;;;;0.00;0.00;;;1.90;99.90;;;;;;4981433;28;20236;-66
2022/01/05 02:27:40;;;;;;;0.00;0.00;;;1.90;99.90;;;;;;4976652;28;20039;-65
2022/01/05 02:30:07;;;;;;;0.00;0.00;;;1.80;99.90;;;;;;4969020;28;20043;-66
2022/01/05 02:32:33;;;;;;;0.00;0.00;;;1.80;99.90;;;;;;4961309;28;20107;-66
2022/01/05 02:34:58;;;;;;;0.00;0.00;;;1.80;99.90;;;;;;4961790;28;20642;-66
2022/01/05 02:37:24;;;;;;;0.00;0.00;;;1.80;99.90;;;;;;4960376;28;20096;-66
2022/01/05 02:39:49;;;;;;;0.00;0.00;;;1.70;99.90;;;;;;4961156;28;20076;-66
2022/01/05 02:42:29;;;;;;;0.00;0.00;;;1.80;99.90;;;;;;4960804;28;20096;-66
2022/01/05 02:44:56;;;;;;;0.00;0.00;;;1.80;99.90;;;;;;4960100;28;20054;-66
2022/01/05 02:47:22;;;;;;;0.00;0.00;;;1.80;99.90;;;;;;4960797;28;20051;-66
2022/01/05 02:49:48;;;;;;;0.00;0.00;;;1.80;99.90;;;;;;4961551;28;20049;-66
2022/01/05 02:52:14;;;;;;;0.00;0.00;;;1.90;99.90;;;;;;4960106;28;20125;-65
2022/01/05 02:54:41;;;;;;;0.00;0.00;;;1.90;99.90;;;;;;4961127;28;20057;-66
2022/01/05 02:57:07;;;;;;;0.00;0.00;;;1.90;99.90;;;;;;4960160;28;20073;-66
2022/01/05 02:59:33;;;;;;;0.00;0.00;;;2.00;99.90;;;;;;4961674;28;20055;-66
2022/01/05 03:01:58;;;;;;;0.00;0.00;;;1.90;99.90;;;;;;4961613;28;20598;-66
2022/01/05 03:04:26;;;;;;;0.00;0.00;;;1.90;99.90;;;;;;4959809;28;20047;-66
2022/01/05 03:06:52;;;;;;;0.00;0.00;;;2.00;99.90;;;;;;4960490;28;20457;-66
2022/01/05 03:09:17;;;;;;;0.00;0.00;;;2.00;99.90;;;;;;4959719;28;20086;-65
2022/01/05 03:11:43;;;;;;;0.00;0.00;;;2.00;99.90;;;;;;4960101;28;20085;-66
2022/01/05 03:14:09;;;;;;;0.00;0.00;;;2.00;99.90;;;;;;4961051;28;20035;-66
2022/01/05 03:16:35;;;;;;;0.00;0.00;;;2.00;99.90;;;;;;4960738;28;20064;-66
2022/01/05 03:19:00;;;;;;;0.00;0.00;;;2.00;99.90;;;;;;4960610;28;20063;-65
2022/01/05 03:21:26;;;;;;;0.30;0.30;;;2.10;99.90;;;;;;4959808;28;20493;-66
2022/01/05 03:23:51;;;;;;;0.00;0.00;;;2.00;99.90;;;;;;4959723;28;20121;-66
2022/01/05 03:26:17;;;;;;;0.00;0.00;;;2.10;99.90;;;;;;4959475;28;20138;-66
2022/01/05 03:28:42;;;;;;;0.00;0.00;;;2.10;99.90;;;;;;4966692;28;20046;-66
2022/01/05 03:31:08;;;;;;;0.00;0.00;;;2.10;99.90;;;;;;4964671;28;20051;-66
2022/01/05 03:33:34;;;;;;;0.00;0.00;;;2.30;99.90;;;;;;4960784;28;20481;-66
2022/01/05 03:35:59;;;;;;;0.00;0.00;;;2.10;99.90;;;;;;4960593;28;20055;-66
2022/01/05 03:38:28;;;;;;;0.00;0.00;;;2.10;99.90;;;;;;4960626;28;20043;-66
2022/01/05 03:40:53;;;;;;;0.00;0.00;;;2.10;99.90;;;;;;4960655;28;20400;-65
2022/01/05 03:43:19;;;;;;;0.00;0.00;;;2.20;99.90;;;;;;4958010;28;20055;-66
2022/01/05 03:45:45;;;;;;;0.00;0.00;;;2.20;99.90;;;;;;4960520;28;20051;-65
2022/01/05 03:48:12;;;;;;;0.00;0.00;;;2.40;99.90;;;;;;4959386;28;20047;-66
2022/01/05 03:50:38;;;;;;;0.00;0.00;;;2.40;99.90;;;;;;4959394;28;20057;-66
2022/01/05 03:53:05;;;;;;;0.00;0.00;;;2.50;99.90;;;;;;4959498;28;20051;-66
2022/01/05 03:55:32;;;;;;;0.00;0.00;;;3.60;99.90;;;;;;4959965;28;20055;-65
2022/01/05 03:57:58;;;;;;;0.00;0.00;;;2.50;99.90;;;;;;4958724;28;20125;-66
2022/01/05 04:00:27;;;;;;;0.00;0.00;;;2.50;99.90;;;;;;4960558;28;20553;-66
2022/01/05 04:02:53;;;;;;;0.00;0.00;;;3.40;99.90;;;;;;4958531;28;20043;-65
2022/01/05 04:05:19;;;;;;;0.00;0.00;;;2.60;99.90;;;;;;4958949;28;20049;-66
2022/01/05 04:07:45;;;;;;;0.00;0.00;;;2.60;99.90;;;;;;4960389;28;20093;-65
2022/01/05 04:10:10;;;;;;;0.00;0.00;;;2.60;99.90;;;;;;4959816;28;20058;-66
2022/01/05 04:12:36;;;;;;;0.00;0.00;;;2.60;99.90;;;;;;4941862;28;20049;-66
2022/01/05 04:15:03;;;;;;;0.00;0.00;;;2.60;99.90;;;;;;4960385;28;20416;-66
2022/01/05 04:17:29;;;;;;;0.00;0.00;;;2.90;99.90;;;;;;4960820;28;20458;-66
2022/01/05 04:19:54;;;;;;;0.00;0.00;;;2.60;99.90;;;;;;4959459;28;20122;-65
2022/01/05 04:22:21;;;;;;;0.00;0.00;;;2.60;99.90;;;;;;4960095;28;20039;-66
2022/01/05 04:24:46;;;;;;;0.00;0.00;;;2.50;99.90;;;;;;4942457;28;20141;-65
2022/01/05 04:27:12;;;;;;;0.00;0.00;;;2.60;99.90;;;;;;4959673;28;20760;-66
2022/01/05 04:29:38;;;;;;;0.00;0.00;;;2.60;99.90;;;;;;4968565;28;20681;-66
2022/01/05 04:32:04;;;;;;;0.00;0.00;;;2.60;99.90;;;;;;4959718;28;20047;-66
2022/01/05 04:34:29;;;;;;;0.00;0.00;;;2.70;99.90;;;;;;4960293;28;20061;-66
2022/01/05 04:36:55;;;;;;;0.00;0.00;;;2.70;99.90;;;;;;4958295;28;20570;-66
2022/01/05 04:39:21;;;;;;;0.00;0.00;;;2.80;99.90;;;;;;4959146;28;20129;-65
2022/01/05 04:41:46;;;;;;;0.00;0.00;;;2.70;99.90;;;;;;4942006;28;20670;-66
2022/01/05 04:44:12;;;;;;;0.00;0.00;;;2.80;99.90;;;;;;4960143;28;20047;-66
2022/01/05 04:46:38;;;;;;;0.00;0.00;;;2.80;99.90;;;;;;4959886;28;20097;-66
2022/01/05 04:49:04;;;;;;;0.00;0.00;;;2.80;99.90;;;;;;4957494;28;20143;-65
2022/01/05 04:51:30;;;;;;;0.00;0.00;;;1.60;99.90;;;;;;4958812;28;20050;-66
2022/01/05 04:53:56;;;;;;;0.00;0.00;;;2.80;99.90;;;;;;4958312;28;20116;-65
2022/01/05 04:56:21;;;;;;;0.00;0.00;;;2.80;99.90;;;;;;4957849;28;20489;-66
2022/01/05 04:58:47;;;;;;;0.00;0.00;;;2.70;99.90;;;;;;4958517;28;20550;-66
2022/01/05 05:01:13;;;;;;;0.00;0.00;;;2.80;99.90;;;;;;4959598;28;20054;-65
2022/01/05 05:03:39;;;;;;;0.00;0.00;;;2.90;99.90;;;;;;4942453;28;20054;-66
2022/01/05 05:06:05;;;;;;;0.00;0.00;;;2.90;99.90;;;;;;4957679;28;20054;-66
2022/01/05 05:08:30;;;;;;;0.00;0.00;;;2.90;99.90;;;;;;4958792;28;20050;-66
2022/01/05 05:10:56;;;;;;;0.00;0.00;;;2.80;99.90;;;;;;4959195;28;20108;-66
2022/01/05 05:13:22;;;;;;;0.00;0.00;;;2.80;99.90;;;;;;4957177;28;20149;-66
2022/01/05 05:15:47;;;;;;;0.00;0.00;;;2.80;99.90;;;;;;4957802;28;20504;-65
2022/01/05 05:18:14;;;;;;;0.00;0.00;;;4.20;99.90;;;;;;4957765;28;20038;-65
2022/01/05 05:20:40;;;;;;;0.00;0.00;;;2.80;99.90;;;;;;4958140;28;20054;-66
2022/01/05 05:23:06;;;;;;;0.00;0.00;;;2.90;99.90;;;;;;4958122;28;20133;-66
2022/01/05 05:25:32;;;;;;;0.00;0.00;;;2.90;99.90;;;;;;4959103;28;20076;-66
2022/01/05 05:27:58;;;;;;;0.00;0.00;;;3.80;99.90;;;;;;4960856;28;20043;-66
2022/01/05 05:30:24;;;;;;;0.00;0.00;;;3.00;99.90;;;;;;4967527;28;20078;-65
2022/01/05 05:32:50;;;;;;;0.43;0.13;;;3.10;99.90;;;;;;4959070;28;20090;-66
2022/01/05 05:35:16;;;;;;;0.00;0.00;;;3.00;99.90;;;;;;4958639;28;20042;-65
2022/01/05 05:37:42;;;;;;;0.00;0.00;;;3.00;99.90;;;;;;4959173;28;20378;-65
2022/01/05 05:40:08;;;;;;;0.00;0.00;;;3.10;99.90;;;;;;4958989;28;20035;-66
2022/01/05 05:42:34;;;;;;;0.00;0.00;;;3.10;99.90;;;;;;4959651;28;20137;-65
2022/01/05 05:44:59;;;;;;;0.00;0.00;;;3.20;99.90;;;;;;4960985;28;20111;-66
2022/01/05 05:47:25;;;;;;;0.00;0.00;;;3.20;99.90;;;;;;4961268;28;20055;-65
2022/01/05 05:49:51;;;;;;;0.00;0.00;;;3.20;99.90;;;;;;4961105;28;20505;-65
2022/01/05 05:52:16;;;;;;;0.00;0.00;;;3.30;99.90;;;;;;4962500;28;20054;-65
2022/01/05 05:54:42;;;;;;;0.00;0.00;;;3.30;99.90;;;;;;4960374;28;20043;-65
2022/01/05 05:57:08;;;;;;;0.00;0.00;;;3.30;99.90;;;;;;4961688;28;20037;-65
2022/01/05 05:59:34;;;;;;;0.00;0.00;;;3.30;99.90;;;;;;4961114;28;20058;-66
2022/01/05 06:02:00;;;;;;;0.00;0.00;;;3.30;99.90;;;;;;4962364;28;20768;-66
2022/01/05 06:04:26;;;;;;;0.00;0.00;;;4.20;99.90;;;;;;4961575;28;20146;-66
2022/01/05 06:06:52;;;;;;;0.00;0.00;;;3.30;99.90;;;;;;4962263;28;20189;-65
2022/01/05 06:09:18;;;;;;;0.00;0.00;;;3.30;99.90;;;;;;4960755;28;20684;-65
2022/01/05 06:11:43;;;;;;;0.00;0.00;;;3.50;99.90;;;;;;4960844;28;20047;-65
2022/01/05 06:14:09;;;;;;;0.00;0.00;;;3.20;99.90;;;;;;4961764;28;20078;-65
2022/01/05 06:16:35;;;;;;;0.00;0.00;;;3.00;99.90;;;;;;4960815;28;20137;-65
2022/01/05 06:19:00;;;;;;;0.00;0.00;;;2.90;99.90;;;;;;4962122;28;20666;-65
2022/01/05 06:21:26;;;;;;;0.00;0.00;;;2.90;99.90;;;;;;4959967;28;20144;-65
2022/01/05 06:23:52;;;;;;;0.00;0.00;;;2.80;99.90;;;;;;4960728;28;20212;-66
2022/01/05 06:26:17;;;;;;;0.00;0.00;;;2.70;99.90;;;;;;4961019;28;20031;-65
2022/01/05 06:28:43;;;;;;;0.00;0.00;;;2.80;99.90;;;;;;4967816;28;20046;-65
2022/01/05 06:31:09;;;;;;;0.00;0.00;;;2.80;99.90;;;;;;4947566;28;20043;-65
2022/01/05 06:33:34;;;;;;;0.00;0.00;;;3.60;99.90;;;;;;4960536;28;20043;-65
2022/01/05 06:36:00;;;;;;;0.00;0.00;;;2.80;99.90;;;;;;4944841;28;20050;-65
2022/01/05 06:38:26;;;;;;;0.00;0.00;;;2.80;99.90;;;;;;4961563;28;20486;-65
2022/01/05 06:40:51;;;;;;;0.00;0.00;;;2.90;99.90;;;;;;4960635;28;20055;-65
2022/01/05 06:43:17;;;;;;;0.00;0.00;;;2.90;99.90;;;;;;4959664;28;20512;-65
2022/01/05 06:45:42;;;;;;;0.00;0.00;;;3.00;99.90;;;;;;4961391;28;20039;-65
2022/01/05 06:48:08;;;;;;;0.00;0.00;;;3.00;99.90;;;;;;4960588;28;20143;-65
2022/01/05 06:50:34;;;;;;;0.00;0.00;;;3.60;99.90;;;;;;4961059;28;20104;-65
2022/01/05 06:52:59;;;;;;;0.00;0.00;;;2.90;99.90;;;;;;4960520;28;20126;-65
2022/01/05 06:55:25;;;;;;;0.00;0.00;;;3.00;99.90;;;;;;4961173;28;20398;-65
2022/01/05 06:57:51;;;;;;;0.00;0.00;;;3.00;99.90;;;;;;4960521;28;20045;-65
2022/01/05 07:00:18;;;;;;;0.00;0.00;;;3.10;99.90;;;;;;4959553;28;20054;-65
2022/01/05 07:02:44;;;;;;;0.00;0.00;;;3.10;99.90;;;;;;4943865;28;20425;-65
2022/01/05 07:05:10;;;;;;;0.00;0.00;;;3.30;99.90;;;;;;4960388;28;20039;-65
2022/01/05 07:07:36;;;;;;;0.00;0.00;;;3.10;99.90;;;;;;4961545;28;20043;-65
2022/01/05 07:10:04;;;;;;;0.00;0.00;;;3.10;99.90;;;;;;4959473;28;20051;-65
2022/01/05 07:12:30;;;;;;;0.00;0.00;;;3.20;99.90;;;;;;4959623;28;20047;-64
2022/01/05 07:14:55;;;;;;;0.00;0.00;;;3.20;99.90;;;;;;4959598;28;20092;-65
2022/01/05 07:17:21;;;;;;;0.00;0.00;;;3.30;99.90;;;;;;4960777;28;20042;-65
2022/01/05 07:19:46;;;;;;;0.00;0.00;;;3.40;99.90;;;;;;4960920;28;20046;-65
2022/01/05 07:22:12;;;;;;;0.00;0.00;;;3.40;99.90;;;;;;4961371;28;20046;-65
2022/01/05 07:24:38;;;;;;;0.00;0.00;;;3.40;99.90;;;;;;4959781;28;20043;-66
2022/01/05 07:27:03;;;;;;;0.00;0.00;;;3.40;99.90;;;;;;4959302;28;20046;-65
2022/01/05 07:29:29;;;;;;;0.00;0.00;;;3.40;99.90;;;;;;4967633;28;20493;-64
2022/01/05 07:31:55;;;;;;;0.00;0.00;;;3.30;99.90;;;;;;4978676;28;20053;-64
2022/01/05 07:34:20;;;;;;;0.00;0.00;;;3.40;99.90;;;;;;4978959;28;20505;-58
2022/01/05 07:36:46;;;;;;;0.00;0.00;;;3.40;99.90;;;;;;4979321;28;20420;-67
2022/01/05 07:39:12;;;;;;;0.00;0.00;;;3.40;99.90;;;;;;4980312;28;20050;-65
2022/01/05 07:41:38;;;;;;;0.00;0.00;;;3.40;99.90;;;;;;4979224;28;20520;-65
2022/01/05 07:44:05;;;;;;;0.00;0.00;;;3.40;99.90;;;;;;4979783;28;20058;-66
2022/01/05 07:46:31;;;;;;;0.00;0.00;;;3.50;99.90;;;;;;4979766;28;20038;-65
2022/01/05 07:48:57;;;;;;;0.00;0.00;;;4.10;99.90;;;;;;4980040;28;20140;-65
2022/01/05 07:51:23;;;;;;;0.00;0.00;;;3.50;99.90;;;;;;4979754;28;20312;-65
2022/01/05 07:53:48;;;;;;;0.00;0.00;;;3.60;99.90;;;;;;4978259;28;20132;-65
2022/01/05 07:56:14;;;;;;;0.00;0.00;;;3.60;99.90;;;;;;4977248;28;20062;-65
2022/01/05 07:58:40;;;;;;;0.00;0.00;;;3.80;99.90;;;;;;4979802;28;20125;-65
2022/01/05 08:01:06;;;;;;;0.00;0.00;;;3.60;99.90;;;;;;4978078;28;20081;-65
2022/01/05 08:03:37;;;;;;;0.00;0.00;;;3.60;99.90;;;;;;4980150;28;20432;-65
2022/01/05 08:06:04;;;;;;;0.00;0.00;;;3.60;99.90;;;;;;4978147;28;20488;-65
2022/01/05 08:08:30;;;;;;;0.00;0.00;;;3.70;99.90;;;;;;4979164;28;20373;-65
2022/01/05 08:10:56;;;;;;;0.00;0.00;;;3.70;99.90;;;;;;4976985;28;20062;-66
2022/01/05 08:13:22;;;;;;;0.00;0.00;;;4.40;99.90;;;;;;4977425;28;20579;-65
2022/01/05 08:15:48;;;;;;;0.00;0.00;;;3.70;99.90;;;;;;4978153;28;20107;-66
2022/01/05 08:18:14;;;;;;;0.00;0.00;;;3.70;99.90;;;;;;4962065;28;20034;-67
2022/01/05 08:20:39;;;;;;;0.00;0.00;;;3.70;99.90;;;;;;5010360;28;20047;-67
2022/01/05 08:23:05;;;;;;;0.00;0.00;;;3.70;99.90;;;;;;5013337;28;20038;-66
2022/01/05 08:25:30;;;;;;;0.00;0.00;;;3.70;99.90;;;;;;5037729;28;20036;-67
2022/01/05 08:27:56;;;;;;;0.00;0.00;;;3.80;99.90;;;;;;5025265;28;20049;-67
2022/01/05 08:30:24;;;;;;;0.00;0.00;;;3.80;99.90;;;;;;4966868;28;20130;-67
2022/01/05 08:32:51;;;;;;;0.00;0.00;;;3.80;99.90;;;;;;4961380;28;20040;-67
2022/01/05 08:35:19;;;;;;;0.00;0.00;;;3.90;99.90;;;;;;4967141;28;20050;-68
2022/01/05 08:37:46;;;;;;;0.00;0.00;;;3.90;99.90;;;;;;5012090;28;20037;-68
2022/01/05 08:40:14;;;;;;;0.00;0.00;;;4.00;99.90;;;;;;5021566;28;20048;-68
2022/01/05 08:42:40;;;;;;;0.00;0.00;;;4.10;99.90;;;;;;4976933;28;20061;-66
2022/01/05 08:45:07;;;;;;;0.00;0.00;;;4.10;99.90;;;;;;4979367;28;20495;-66
2022/01/05 08:47:33;;;;;;;0.00;0.00;;;4.10;99.90;;;;;;4979222;28;20542;-65
2022/01/05 08:49:59;;;;;;;0.00;0.00;;;4.10;99.90;;;;;;4977723;28;20050;-68
2022/01/05 08:52:24;;;;;;;0.00;0.00;;;4.00;99.90;;;;;;4979106;28;20046;-67
2022/01/05 08:54:50;;;;;;;0.00;0.00;;;4.00;99.90;;;;;;4978577;28;20047;-66
2022/01/05 08:57:17;;;;;;;0.00;0.00;;;4.40;99.90;;;;;;4978063;28;20054;-67
2022/01/05 08:59:43;;;;;;;0.00;0.00;;;3.90;99.90;;;;;;4978296;28;20460;-67
2022/01/05 09:02:09;;;;;;;0.00;0.00;;;4.50;99.90;;;;;;4979179;28;20458;-66
2022/01/05 09:04:35;;;;;;;0.00;0.00;;;3.90;99.90;;;;;;4977574;28;20043;-66
2022/01/05 09:07:01;;;;;;;0.00;0.00;;;4.40;99.90;;;;;;4979069;28;20642;-67
2022/01/05 09:09:26;;;;;;;0.00;0.00;;;3.90;99.90;;;;;;4976988;28;20053;-67
2022/01/05 09:11:52;;;;;;;0.00;0.00;;;4.00;99.90;;;;;;4976470;28;20082;-68
2022/01/05 09:14:18;;;;;;;0.00;0.00;;;4.00;99.90;;;;;;4978993;28;20649;-67
2022/01/05 09:16:43;;;;;;;0.10;0.10;;;4.00;99.90;;;;;;4977702;28;20118;-69
2022/01/05 09:19:09;;;;;;;0.00;0.00;;;4.10;99.90;;;;;;4976495;28;20476;-66
2022/01/05 09:21:36;;;;;;;0.00;0.00;;;4.20;99.90;;;;;;4978416;28;20042;-67
2022/01/05 09:24:02;;;;;;;0.00;0.00;;;4.30;99.90;;;;;;4977662;28;20054;-68
2022/01/05 09:26:28;;;;;;;0.00;0.00;;;4.10;99.90;;;;;;4977739;28;20103;-67
2022/01/05 09:28:54;;;;;;;0.00;0.00;;;4.50;99.90;;;;;;4969778;28;20133;-67
2022/01/05 09:31:20;;;;;;;0.00;0.00;;;5.20;99.90;;;;;;4959729;28;20077;-67
2022/01/05 09:33:46;;;;;;;0.00;0.00;;;4.50;99.90;;;;;;4959153;28;20081;-67
2022/01/05 09:36:17;;;;;;;0.00;0.00;;;4.50;99.90;;;;;;4958708;28;20069;-70
2022/01/05 09:44:06;;;;;;;0.00;0.00;;;4.80;99.90;;;;;;4959705;28;20059;-66
2022/01/05 09:46:55;;;;;;;0.00;0.00;;;4.90;99.90;;;;;;4959830;28;20043;-66
2022/01/05 09:49:33;;;;;;;0.00;0.00;;;5.00;99.90;;;;;;5011560;28;20044;-66
2022/01/05 09:52:07;;;;;;;0.00;0.00;;;5.00;99.90;;;;;;5010907;28;20068;-67
2022/01/05 09:54:38;;;;;;;1.63;1.52;;;5.10;99.90;;;;;;5009355;28;20503;-67
2022/01/05 09:57:05;;;;;;;0.00;0.00;;;5.10;99.90;;;;;;5022482;28;20110;-68
2022/01/05 09:59:34;;;;;;;0.00;0.00;;;5.20;99.90;;;;;;4979172;28;20050;-68
2022/01/05 10:02:00;;;;;;;0.00;0.00;;;5.20;99.90;;;;;;5002375;28;20261;-68
2022/01/05 10:04:26;;;;;;;0.00;0.00;;;5.30;99.90;;;;;;5020713;28;20469;-68
2022/01/05 10:06:51;;;;;;;0.00;0.00;;;5.50;99.90;;;;;;5000593;28;20046;-66
2022/01/05 10:09:17;;;;;;;0.00;0.00;;;6.10;99.90;;;;;;4978229;28;20050;-66
2022/01/05 10:11:43;;;;;;;0.35;0.35;;;6.20;99.90;;;;;;4976864;28;20054;-66
2022/01/05 10:14:12;;;;;;;0.00;0.00;;;6.10;99.90;;;;;;4978308;28;20042;-66
2022/01/05 10:16:39;;;;;;;0.00;0.00;;;5.90;99.90;;;;;;4978167;28;20053;-66
2022/01/05 10:19:06;;;;;;;0.00;0.00;;;5.80;99.90;;;;;;4978080;28;20054;-66
2022/01/05 10:21:38;;;;;;;0.00;0.00;;;6.50;99.90;;;;;;4978136;28;20120;-66
2022/01/05 10:24:05;;;;;;;0.00;0.00;;;6.50;99.90;;;;;;4977944;28;20121;-66
2022/01/05 10:26:36;;;;;;;0.00;0.00;;;7.20;99.90;;;;;;4978067;28;20397;-66
2022/01/05 10:29:20;;;;;;;0.00;0.00;;;7.80;99.90;;;;;;4974016;28;20058;-60
2022/01/05 10:31:55;;;;;;;0.00;0.00;;;8.00;99.90;;;;;;4961973;28;20051;-66
2022/01/05 10:34:24;;;;;;;0.00;0.00;;;8.60;99.90;;;;;;4961264;28;20081;-69
2022/01/05 10:36:56;;;;;;;0.00;0.00;;;8.70;99.90;;;;;;4961998;28;20134;-66
2022/01/05 10:39:29;;;;;;;0.00;0.00;;;9.10;99.90;;;;;;4961793;28;20070;-67
2022/01/05 10:41:55;;;;;;;0.00;0.00;;;9.50;99.90;;;;;;4959356;28;20107;-67
2022/01/05 10:44:22;;;;;;;0.00;0.00;;;11.00;99.90;;;;;;4961943;28;20533;-66
2022/01/05 10:46:54;;;;;;;0.00;0.00;;;10.10;99.90;;;;;;4961677;28;20619;-67
2022/01/05 10:49:34;;;;;;;0.00;0.00;;;9.80;99.90;;;;;;4961490;28;20045;-66
2022/01/05 10:52:32;;;;;;;0.00;0.00;;;10.60;99.90;;;;;;4961985;28;20707;-67
2022/01/05 10:55:15;;;;;;;0.00;0.00;;;10.00;99.90;;;;;;4961235;28;20115;-67
2022/01/05 10:57:58;;;;;;;0.00;0.00;;;9.90;99.90;;;;;;4959532;28;20050;-63
2022/01/05 11:00:33;;;;;;;0.00;0.00;;;9.00;99.90;;;;;;4961836;28;20109;-67
2022/01/05 11:02:59;;;;;;;;;;;8.60;99.90;;;;;;4962434;28;20046;-68
2022/01/05 11:05:25;;;;;;;0.00;0.00;;;8.00;99.90;;;;;;4961919;28;19937;-68
2022/01/05 11:07:51;;;;;;;0.00;0.00;;;7.50;99.90;;;;;;4961035;28;20137;-67
2022/01/05 11:10:18;;;;;;;0.00;0.00;;;7.20;99.90;;;;;;4961139;28;20082;-66
2022/01/05 11:12:54;;;;;;;0.00;0.00;;;7.30;99.90;;;;;;4960690;28;20057;-67
2022/01/05 11:15:30;;;;;;;0.00;0.00;;;8.00;99.90;;;;;;4960758;28;20097;-67
2022/01/05 11:18:22;;;;;;;0.00;0.00;;;8.10;99.90;;;;;;4957164;28;20043;-67
2022/01/05 11:20:52;;;;;;;0.00;0.00;;;8.00;99.90;;;;;;4973424;28;20043;-68
2022/01/05 11:23:20;;;;;;;0.00;0.00;;;8.20;99.90;;;;;;4967412;28;20662;-67
2022/01/05 11:25:47;;;;;;;0.00;0.00;;;9.40;99.90;;;;;;4962660;28;20098;-67
2022/01/05 11:28:14;;;;;;;0.00;0.00;;;8.70;99.90;;;;;;4965510;28;20038;-67
2022/01/05 11:30:42;;;;;;;0.00;0.00;;;9.00;99.90;;;;;;4967044;28;20047;-67
2022/01/05 11:33:08;;;;;;;0.00;0.00;;;9.30;99.90;;;;;;4961435;28;20078;-67
2022/01/05 11:35:35;;;;;;;0.00;0.00;;;9.50;99.90;;;;;;4961068;28;20089;-68
2022/01/05 11:38:02;;;;;;;0.00;0.00;;;9.40;99.90;;;;;;4959295;28;20051;-67
2022/01/05 11:40:29;;;;;;;0.00;0.00;;;9.60;99.90;;;;;;4973010;28;20072;-67
2022/01/05 11:43:02;;;;;;;0.00;0.00;;;10.00;99.90;;;;;;5024434;28;20046;-68
2022/01/05 11:45:33;;;;;;;0.00;0.00;;;9.90;99.90;;;;;;5019931;28;20048;-66
2022/01/05 11:48:21;;;;;;;0.00;0.00;;;9.10;99.90;;;;;;5024325;28;20457;-66
2022/01/05 11:50:52;;;;;;;0.00;0.00;;;8.90;99.90;;;;;;4989386;28;20103;-67
2022/01/05 11:53:50;;;;;;;0.00;0.00;;;8.70;99.90;;;;;;4962515;28;20062;-67
2022/01/05 11:56:22;;;;;;;0.00;0.00;;;8.50;99.90;;;;;;4955719;28;20046;-67
2022/01/05 11:59:00;;;;;;;0.00;0.00;;;8.10;99.90;;;;;;4980192;28;20042;-67
2022/01/05 12:01:57;;;;;;;0.00;0.00;;;8.00;99.90;;;;;;4980186;28;20054;-69
2022/01/05 12:04:23;;;;;;;0.00;0.00;;;7.80;99.90;;;;;;4980100;28;20056;-67
2022/01/05 12:06:49;;;;;;;0.00;0.00;;;7.70;99.90;;;;;;4979930;28;20527;-64
2022/01/05 12:09:28;;;;;;;0.00;0.00;;;7.70;99.90;;;;;;4978760;28;20077;-67
2022/01/05 12:12:20;;;;;;;0.00;0.00;;;7.60;99.90;;;;;;4976121;28;20062;-67
2022/01/05 12:14:46;;;;;;;0.00;0.00;;;7.40;99.90;;;;;;4975910;28;20132;-67
2022/01/05 12:17:14;;;;;;;0.00;0.00;;;7.40;99.90;;;;;;4977275;28;20046;-67
2022/01/05 12:19:46;;;;;;;0.00;0.00;;;7.30;99.90;;;;;;4977929;28;20158;-67
2022/01/05 12:22:27;;;;;;;0.00;0.00;;;8.20;99.90;;;;;;4977464;28;20050;-67
2022/01/05 12:25:04;;;;;;;0.00;0.00;;;7.30;99.90;;;;;;4978389;28;20232;-67
2022/01/05 12:27:35;;;;;;;0.00;0.00;;;7.50;99.90;;;;;;4975391;28;20497;-67
2022/01/05 12:30:21;;;;;;;0.00;0.00;;;7.50;99.90;;;;;;4967091;28;20096;-66
2022/01/05 12:33:00;;;;;;;0.00;0.00;;;7.70;99.90;;;;;;4957625;28;20051;-67
2022/01/05 12:35:27;;;;;;;0.00;0.00;;;8.00;99.90;;;;;;4959805;28;20047;-67
2022/01/05 12:37:58;;;;;;;0.00;0.00;;;8.00;99.90;;;;;;4958546;28;20050;-67
2022/01/05 12:40:39;;;;;;;0.00;0.00;;;8.10;99.90;;;;;;4957032;28;20069;-66
2022/01/05 12:43:13;;;;;;;0.00;0.00;;;8.10;99.90;;;;;;4958206;28;20077;-68
2022/01/05 12:45:59;;;;;;;0.32;0.32;;;8.10;99.90;;;;;;4959092;28;20050;-67
2022/01/05 12:48:39;;;;;;;0.00;0.00;;;8.20;99.90;;;;;;4958373;28;20073;-67
2022/01/05 12:51:14;;;;;;;0.00;0.00;;;8.20;99.90;;;;;;4958713;28;20051;-68
2022/01/05 12:54:03;;;;;;;0.00;0.00;;;8.00;99.90;;;;;;4958596;28;20042;-68
2022/01/05 12:56:32;;;;;;;0.00;0.00;;;8.30;99.90;;;;;;4957409;28;20055;-67
2022/01/05 12:58:58;;;;;;;0.00;0.00;;;7.70;99.90;;;;;;4942531;28;20489;-67
2022/01/05 13:01:26;;;;;;;0.00;0.00;;;7.70;99.90;;;;;;4959574;28;20042;-67
2022/01/05 13:03:57;;;;;;;0.00;0.00;;;9.20;99.90;;;;;;4957469;28;20042;-67
2022/01/05 13:06:25;;;;;;;0.00;0.00;;;9.00;99.90;;;;;;4959502;28;20072;-68